Time;durP1;ratioP1;P1;durP2;ratioP2;P2;SDS_P1;SDS_P2;PMS_P1;PMS_P2;Temp;Humidity;BMP_temperature;BMP_pressure;BME280_temperature;BME280_humidity;BME280_pressure;Samples;Min_cycle;Max_cycle;Signal;HPM_P1;HPM_P2
2022/04/18 00:02:21;;;;;;;20.13;11.32;;;7.70;97.00;;;;;;5096936;28;20087;-85
2022/04/18 00:04:47;;;;;;;19.75;11.75;;;7.60;96.90;;;;;;5079754;28;20139;-85
2022/04/18 00:07:13;;;;;;;17.45;10.73;;;7.60;97.60;;;;;;5096741;28;20573;-85
2022/04/18 00:09:39;;;;;;;17.73;11.25;;;7.60;97.00;;;;;;5096844;28;20043;-85
2022/04/18 00:12:05;;;;;;;17.10;11.52;;;7.60;97.40;;;;;;5097083;28;20486;-85
2022/04/18 00:14:31;;;;;;;20.65;11.90;;;7.50;97.80;;;;;;5096653;28;20482;-85
2022/04/18 00:16:57;;;;;;;18.40;11.85;;;7.50;97.50;;;;;;5096795;28;20074;-85
2022/04/18 00:19:23;;;;;;;17.50;11.63;;;7.40;97.60;;;;;;5078785;28;20116;-84
2022/04/18 00:21:49;;;;;;;18.25;11.52;;;7.40;97.90;;;;;;5096674;28;20098;-85
2022/04/18 00:24:17;;;;;;;17.73;11.23;;;7.30;98.10;;;;;;5096072;28;20071;-85
2022/04/18 00:26:43;;;;;;;18.05;11.75;;;7.30;98.70;;;;;;5096825;28;20047;-86
2022/04/18 00:29:10;;;;;;;18.92;11.38;;;7.30;99.00;;;;;;5096489;28;20048;-85
2022/04/18 00:31:36;;;;;;;17.08;11.18;;;7.20;99.10;;;;;;5079573;28;20396;-85
2022/04/18 00:34:02;;;;;;;18.42;10.80;;;7.20;98.90;;;;;;5096247;28;20112;-84
2022/04/18 00:36:28;;;;;;;17.88;11.38;;;7.10;98.90;;;;;;5079447;28;20098;-84
2022/04/18 00:38:53;;;;;;;20.23;12.10;;;7.10;99.20;;;;;;5095957;28;20079;-86
2022/04/18 00:41:19;;;;;;;24.75;12.52;;;7.10;99.30;;;;;;5095828;28;20051;-85
2022/04/18 00:43:50;;;;;;;20.20;11.82;;;7.00;99.20;;;;;;5096053;28;20051;-85
2022/04/18 00:46:18;;;;;;;21.92;11.38;;;7.20;98.90;;;;;;5096186;28;20042;-85
2022/04/18 00:48:44;;;;;;;19.10;11.38;;;7.10;99.00;;;;;;5095956;28;20039;-84
2022/04/18 00:51:12;;;;;;;21.70;11.43;;;7.00;98.40;;;;;;5095819;28;20039;-84
2022/04/18 00:53:39;;;;;;;18.38;11.55;;;7.00;98.40;;;;;;5079198;28;20047;-84
2022/04/18 00:56:06;;;;;;;17.38;11.43;;;6.90;98.90;;;;;;5095896;28;20044;-84
2022/04/18 00:58:33;;;;;;;18.85;11.95;;;6.90;98.90;;;;;;5079076;28;20047;-85
2022/04/18 01:00:59;;;;;;;17.23;11.98;;;6.90;99.20;;;;;;5113573;28;20040;-84
2022/04/18 01:03:26;;;;;;;27.33;12.02;;;6.80;99.20;;;;;;5078778;28;20126;-84
2022/04/18 01:05:51;;;;;;;19.85;11.93;;;6.80;99.10;;;;;;5113700;28;20112;-84
2022/04/18 01:08:17;;;;;;;19.00;12.20;;;6.80;99.30;;;;;;5094954;28;20497;-85
2022/04/18 01:10:46;;;;;;;17.63;11.20;;;6.80;99.40;;;;;;5078717;28;20104;-86
2022/04/18 01:13:12;;;;;;;19.73;11.32;;;6.70;99.80;;;;;;5095350;28;20074;-84
2022/04/18 01:15:38;;;;;;;17.85;12.20;;;6.70;99.90;;;;;;5113588;28;20093;-85
2022/04/18 01:18:03;;;;;;;19.20;12.00;;;6.60;99.90;;;;;;5113822;28;20050;-84
2022/04/18 01:20:36;;;;;;;19.33;11.98;;;6.60;99.90;;;;;;5113438;28;20032;-85
2022/04/18 01:23:06;;;;;;;19.15;13.00;;;6.60;99.90;;;;;;5113189;28;20043;-85
2022/04/18 01:31:02;;;;;;;18.80;12.68;;;6.50;99.90;;;;;;5113311;28;20062;-84
2022/04/18 01:33:28;;;;;;;20.30;11.98;;;6.50;99.90;;;;;;5094990;28;20468;-85
2022/04/18 01:35:53;;;;;;;20.90;12.18;;;6.50;99.90;;;;;;5095039;28;20043;-84
2022/04/18 01:38:19;;;;;;;20.65;13.00;;;6.60;99.90;;;;;;5078030;28;20050;-85
2022/04/18 01:40:45;;;;;;;19.92;12.52;;;6.50;99.60;;;;;;5095208;28;20180;-85
2022/04/18 01:43:10;;;;;;;19.95;13.23;;;6.70;99.40;;;;;;5077555;28;20112;-84
2022/04/18 01:45:36;;;;;;;21.00;12.02;;;6.50;99.20;;;;;;5113297;28;20047;-84
2022/04/18 01:48:02;;;;;;;23.73;13.30;;;6.50;98.50;;;;;;5077694;28;20063;-84
2022/04/18 01:50:27;;;;;;;24.20;12.35;;;6.50;98.00;;;;;;5094710;28;20050;-87
2022/04/18 01:52:53;;;;;;;19.75;12.38;;;6.60;97.60;;;;;;5095111;28;20509;-84
2022/04/18 01:55:19;;;;;;;20.40;12.77;;;6.60;96.70;;;;;;5113055;28;20095;-85
2022/04/18 01:57:45;;;;;;;20.35;12.88;;;6.60;96.30;;;;;;5095006;28;20051;-85
2022/04/18 02:00:11;;;;;;;21.13;13.02;;;6.70;96.10;;;;;;5094908;28;20177;-85
2022/04/18 02:02:36;;;;;;;20.92;12.57;;;6.70;96.20;;;;;;5093593;28;20074;-85
2022/04/18 02:05:04;;;;;;;20.00;12.63;;;6.70;95.70;;;;;;5073694;28;20104;-85
2022/04/18 02:07:30;;;;;;;21.40;12.23;;;6.70;95.40;;;;;;5091356;28;20160;-84
2022/04/18 02:09:55;;;;;;;20.77;12.55;;;6.60;95.30;;;;;;5074861;28;20083;-84
2022/04/18 02:12:21;;;;;;;20.38;12.70;;;6.60;95.10;;;;;;5091489;28;20037;-85
2022/04/18 02:14:47;;;;;;;24.48;13.55;;;6.70;95.40;;;;;;5091524;28;20071;-85
2022/04/18 02:17:13;;;;;;;22.70;13.82;;;6.60;94.70;;;;;;5092457;28;20056;-85
2022/04/18 02:19:39;;;;;;;21.55;13.15;;;6.70;94.80;;;;;;5092433;28;20443;-85
2022/04/18 02:22:05;;;;;;;21.27;13.27;;;6.60;94.70;;;;;;5091093;28;20109;-85
2022/04/18 02:24:31;;;;;;;20.17;12.52;;;6.60;95.10;;;;;;5091485;28;20044;-84
2022/04/18 02:26:58;;;;;;;22.88;13.63;;;6.50;94.90;;;;;;5095433;28;20432;-84
2022/04/18 02:29:24;;;;;;;20.70;12.15;;;6.50;95.30;;;;;;5078679;28;20052;-84
2022/04/18 02:34:33;;;;;;;21.77;12.73;;;6.40;95.40;;;;;;5095219;28;20066;-84
2022/04/18 02:36:59;;;;;;;21.13;12.50;;;6.40;95.80;;;;;;5095518;28;20127;-84
2022/04/18 02:39:25;;;;;;;20.48;13.15;;;6.30;96.00;;;;;;5095123;28;20040;-84
2022/04/18 02:41:50;;;;;;;20.35;12.73;;;6.30;95.90;;;;;;5096393;28;20082;-84
2022/04/18 02:44:16;;;;;;;18.70;12.55;;;6.40;96.00;;;;;;5078079;28;20040;-84
2022/04/18 02:46:42;;;;;;;24.40;13.23;;;6.30;96.20;;;;;;5095229;28;20051;-84
2022/04/18 02:49:08;;;;;;;21.38;12.55;;;6.30;95.90;;;;;;5077890;28;20468;-84
2022/04/18 02:51:33;;;;;;;19.98;12.95;;;6.20;96.40;;;;;;5094913;28;20070;-84
2022/04/18 02:53:59;;;;;;;20.40;12.55;;;6.20;96.50;;;;;;5078225;28;20070;-84
2022/04/18 02:56:25;;;;;;;21.10;12.98;;;6.40;96.60;;;;;;5095004;28;20051;-84
2022/04/18 02:58:50;;;;;;;25.20;12.65;;;6.10;97.10;;;;;;5094704;28;20052;-84
2022/04/18 03:01:16;;;;;;;20.02;12.32;;;6.00;97.70;;;;;;5095658;28;20048;-84
2022/04/18 03:03:42;;;;;;;21.83;12.65;;;6.00;97.90;;;;;;5077236;28;20052;-84
2022/04/18 03:06:08;;;;;;;25.20;13.68;;;5.90;97.80;;;;;;5095551;28;20067;-84
2022/04/18 03:08:33;;;;;;;19.60;12.40;;;5.90;98.20;;;;;;5094779;28;20521;-84
2022/04/18 03:11:02;;;;;;;21.30;12.75;;;5.90;98.50;;;;;;5095775;28;20114;-84
2022/04/18 03:13:28;;;;;;;23.52;13.07;;;5.90;98.90;;;;;;5078037;28;20048;-84
2022/04/18 03:15:54;;;;;;;20.92;12.23;;;5.90;99.00;;;;;;5094488;28;20047;-84
2022/04/18 03:18:20;;;;;;;21.42;12.40;;;5.70;99.70;;;;;;5077004;28;20059;-84
2022/04/18 03:20:46;;;;;;;20.83;12.77;;;5.70;99.70;;;;;;5077422;28;20515;-85
2022/04/18 03:23:12;;;;;;;22.10;12.90;;;5.60;99.90;;;;;;5094481;28;20071;-84
2022/04/18 03:25:37;;;;;;;21.27;13.07;;;5.60;99.90;;;;;;5094261;28;20508;-84
2022/04/18 03:28:03;;;;;;;23.02;12.43;;;5.50;99.90;;;;;;5093936;28;20063;-84
2022/04/18 03:30:29;;;;;;;21.60;12.60;;;5.50;99.90;;;;;;5094158;28;20524;-84
2022/04/18 03:32:55;;;;;;;20.33;12.65;;;5.40;99.90;;;;;;5093904;28;20079;-84
2022/04/18 03:35:20;;;;;;;20.38;11.93;;;5.40;99.90;;;;;;5093529;28;20051;-85
2022/04/18 03:40:30;;;;;;;20.17;12.90;;;5.30;99.90;;;;;;5094246;28;20048;-84
2022/04/18 03:42:56;;;;;;;19.05;12.05;;;5.30;99.90;;;;;;5094950;28;20048;-84
2022/04/18 03:45:21;;;;;;;20.58;12.48;;;5.20;99.90;;;;;;5093821;28;20052;-84
2022/04/18 03:47:47;;;;;;;19.75;11.95;;;5.20;99.90;;;;;;5093932;28;20082;-84
2022/04/18 03:50:14;;;;;;;21.13;12.85;;;5.20;99.90;;;;;;5094640;28;20043;-84
2022/04/18 03:52:40;;;;;;;21.08;12.80;;;5.20;99.90;;;;;;5093980;28;20493;-84
2022/04/18 03:55:06;;;;;;;21.17;12.75;;;5.10;99.90;;;;;;5094821;28;20077;-84
2022/04/18 03:57:32;;;;;;;20.88;13.48;;;5.10;99.90;;;;;;5095041;28;20520;-84
2022/04/18 03:59:57;;;;;;;21.77;13.63;;;5.00;99.90;;;;;;5094602;28;20051;-84
2022/04/18 04:02:23;;;;;;;20.23;12.98;;;5.10;99.90;;;;;;5095073;28;20051;-84
2022/04/18 04:04:49;;;;;;;19.60;12.75;;;4.90;99.90;;;;;;5093000;28;20565;-84
2022/04/18 04:07:14;;;;;;;21.00;13.43;;;5.00;99.90;;;;;;5076791;28;20048;-84
2022/04/18 04:09:40;;;;;;;21.20;13.02;;;4.90;99.90;;;;;;5076543;28;20501;-87
2022/04/18 04:12:06;;;;;;;22.00;12.63;;;4.80;99.90;;;;;;5076884;28;20130;-85
2022/04/18 04:14:33;;;;;;;22.58;12.13;;;4.80;99.90;;;;;;5094418;28;20044;-84
2022/04/18 04:16:58;;;;;;;18.25;11.07;;;4.80;99.90;;;;;;5093254;28;20043;-84
2022/04/18 04:19:24;;;;;;;19.95;13.55;;;4.80;99.90;;;;;;5092561;28;20047;-84
2022/04/18 04:21:50;;;;;;;21.60;12.38;;;4.70;99.90;;;;;;5076021;28;20044;-84
2022/04/18 04:24:16;;;;;;;18.42;12.25;;;4.70;99.90;;;;;;5093832;28;20463;-84
2022/04/18 04:26:41;;;;;;;19.85;12.23;;;4.70;99.90;;;;;;5076036;28;20126;-84
2022/04/18 04:29:07;;;;;;;22.02;12.30;;;4.70;99.90;;;;;;5094124;28;20154;-84
2022/04/18 04:31:33;;;;;;;20.25;12.57;;;4.70;99.90;;;;;;5076099;28;20474;-84
2022/04/18 04:33:58;;;;;;;23.13;12.77;;;4.70;99.90;;;;;;5094228;28;20051;-84
2022/04/18 04:36:24;;;;;;;20.00;12.30;;;4.70;99.90;;;;;;5092881;28;20082;-84
2022/04/18 04:38:50;;;;;;;19.85;12.75;;;4.70;99.90;;;;;;5094079;28;20043;-84
2022/04/18 04:41:16;;;;;;;21.83;12.80;;;4.70;99.90;;;;;;5093948;28;20040;-84
2022/04/18 04:43:41;;;;;;;20.05;11.98;;;4.70;99.90;;;;;;5092900;28;20103;-84
2022/04/18 04:46:07;;;;;;;21.75;12.15;;;4.60;99.90;;;;;;5093171;28;20122;-84
2022/04/18 04:48:33;;;;;;;20.80;12.70;;;4.70;99.90;;;;;;5092641;28;20077;-84
2022/04/18 04:50:58;;;;;;;24.00;13.40;;;4.70;99.90;;;;;;5094708;28;20040;-84
2022/04/18 04:53:24;;;;;;;18.08;11.65;;;4.70;99.90;;;;;;5093177;28;20093;-85
2022/04/18 04:55:50;;;;;;;22.25;12.05;;;4.90;99.90;;;;;;5094924;28;20047;-84
2022/04/18 04:58:15;;;;;;;19.98;12.85;;;4.70;99.90;;;;;;5093813;28;20473;-84
2022/04/18 05:00:42;;;;;;;20.15;12.00;;;4.70;99.90;;;;;;5093568;28;20473;-84
2022/04/18 05:03:08;;;;;;;20.00;12.35;;;4.60;99.90;;;;;;5094650;28;20067;-84
2022/04/18 05:05:34;;;;;;;20.85;11.98;;;4.70;99.90;;;;;;5092849;28;20056;-84
2022/04/18 05:08:00;;;;;;;18.45;11.88;;;4.80;99.90;;;;;;5093847;28;20051;-84
2022/04/18 05:10:25;;;;;;;19.52;12.13;;;4.80;99.90;;;;;;5093763;28;20505;-84
2022/04/18 05:12:51;;;;;;;17.50;12.07;;;4.90;99.90;;;;;;5075517;28;20131;-84
2022/04/18 05:15:17;;;;;;;21.02;12.07;;;5.10;99.90;;;;;;5093158;28;20056;-84
2022/04/18 05:17:42;;;;;;;19.15;12.25;;;5.30;99.90;;;;;;5075319;28;20048;-85
2022/04/18 05:20:09;;;;;;;20.42;11.70;;;5.20;99.90;;;;;;5092262;28;20044;-84
2022/04/18 05:22:35;;;;;;;19.58;12.10;;;5.30;99.90;;;;;;5091898;28;20091;-84
2022/04/18 05:25:01;;;;;;;20.67;12.13;;;5.40;99.90;;;;;;5091992;28;20048;-84
2022/04/18 05:27:27;;;;;;;18.10;11.82;;;5.40;99.90;;;;;;5093192;28;20047;-84
2022/04/18 05:29:52;;;;;;;18.05;11.18;;;5.50;99.90;;;;;;5092305;28;20048;-84
2022/04/18 05:32:18;;;;;;;20.13;11.45;;;5.50;99.90;;;;;;5091728;28;20044;-85
2022/04/18 05:34:44;;;;;;;25.02;12.13;;;5.50;99.90;;;;;;5075207;28;20043;-84
2022/04/18 05:37:10;;;;;;;17.15;10.95;;;5.70;99.90;;;;;;5092622;28;20043;-85
2022/04/18 05:39:36;;;;;;;19.27;12.10;;;5.80;99.90;;;;;;5093417;28;20048;-85
2022/04/18 05:42:02;;;;;;;21.00;12.70;;;5.90;99.90;;;;;;5091838;28;20421;-85
2022/04/18 05:44:31;;;;;;;21.42;11.80;;;6.00;99.90;;;;;;5074818;28;20443;-84
2022/04/18 05:46:56;;;;;;;20.92;11.32;;;6.00;99.90;;;;;;5074506;28;20109;-84
2022/04/18 05:49:22;;;;;;;18.63;11.48;;;6.00;99.90;;;;;;5091705;28;20048;-84
2022/04/18 05:51:48;;;;;;;19.95;11.70;;;6.10;99.90;;;;;;5091358;28;20036;-85
2022/04/18 05:54:13;;;;;;;18.38;12.18;;;6.20;99.90;;;;;;5092946;28;20036;-84
2022/04/18 05:56:39;;;;;;;17.60;11.77;;;6.20;99.90;;;;;;5092839;28;20036;-85
2022/04/18 05:59:05;;;;;;;17.83;11.05;;;6.40;99.80;;;;;;5091586;28;20063;-85
2022/04/18 06:01:30;;;;;;;17.67;11.50;;;6.50;99.40;;;;;;5075050;28;20044;-84
2022/04/18 06:03:56;;;;;;;24.50;11.57;;;6.50;99.30;;;;;;5091346;28;20063;-84
2022/04/18 06:06:22;;;;;;;18.05;11.50;;;6.60;98.70;;;;;;5092600;28;20044;-84
2022/04/18 06:08:48;;;;;;;17.73;11.02;;;6.70;98.40;;;;;;5093069;28;20374;-85
2022/04/18 06:11:14;;;;;;;20.48;11.50;;;6.80;97.80;;;;;;5094324;28;20047;-84
2022/04/18 06:13:39;;;;;;;17.52;10.68;;;6.90;98.00;;;;;;5093798;28;20060;-84
2022/04/18 06:16:06;;;;;;;19.13;10.85;;;7.00;97.50;;;;;;5092937;28;20562;-83
2022/04/18 06:18:32;;;;;;;18.48;10.18;;;7.10;96.30;;;;;;5093151;28;20043;-84
2022/04/18 06:20:58;;;;;;;19.02;10.65;;;7.30;95.40;;;;;;5094008;28;20047;-84
2022/04/18 06:23:23;;;;;;;19.52;11.70;;;7.40;94.40;;;;;;5075725;28;20054;-85
2022/04/18 06:25:49;;;;;;;17.25;10.93;;;7.50;93.20;;;;;;5093349;28;20040;-86
2022/04/18 06:28:15;;;;;;;20.33;11.02;;;7.70;92.70;;;;;;5099340;28;20044;-85
2022/04/18 06:30:41;;;;;;;17.60;11.23;;;7.70;92.20;;;;;;5096426;28;20048;-85
2022/04/18 06:33:13;;;;;;;16.52;10.52;;;7.90;91.80;;;;;;5101194;28;20059;-84
2022/04/18 06:35:38;;;;;;;18.30;11.23;;;8.00;90.80;;;;;;5097638;28;20048;-86
2022/04/18 06:38:05;;;;;;;15.40;10.23;;;8.10;90.00;;;;;;5090396;28;20409;-85
2022/04/18 06:40:30;;;;;;;18.77;11.38;;;8.20;90.10;;;;;;5095787;28;20047;-86
2022/04/18 06:42:56;;;;;;;16.75;10.35;;;8.30;89.20;;;;;;5074419;28;20052;-84
2022/04/18 06:45:22;;;;;;;16.45;11.40;;;8.40;87.50;;;;;;5074048;28;20044;-85
2022/04/18 06:47:48;;;;;;;18.02;11.02;;;8.50;87.30;;;;;;5092467;28;20040;-84
2022/04/18 06:50:14;;;;;;;19.35;10.80;;;8.60;86.70;;;;;;5093548;28;20050;-85
2022/04/18 06:52:42;;;;;;;16.52;11.07;;;8.70;85.40;;;;;;5087827;28;20098;-85
2022/04/18 06:55:08;;;;;;;16.77;10.80;;;8.80;83.40;;;;;;5090023;28;20093;-85
2022/04/18 06:57:35;;;;;;;18.58;10.60;;;8.90;81.50;;;;;;5075321;28;20097;-85
2022/04/18 07:00:02;;;;;;;17.08;11.20;;;9.00;79.80;;;;;;5086996;28;20080;-85
2022/04/18 07:02:28;;;;;;;17.88;10.93;;;9.10;77.90;;;;;;5071153;28;20628;-85
2022/04/18 07:04:54;;;;;;;15.77;10.50;;;9.20;77.90;;;;;;5075629;28;20113;-85
2022/04/18 07:07:19;;;;;;;16.63;11.32;;;9.30;77.50;;;;;;5088511;28;20051;-85
2022/04/18 07:09:46;;;;;;;16.15;10.95;;;9.40;77.50;;;;;;5090577;28;20050;-85
2022/04/18 07:12:11;;;;;;;18.58;11.02;;;9.60;78.80;;;;;;5075519;28;20048;-84
2022/04/18 07:14:38;;;;;;;18.10;10.40;;;9.60;78.70;;;;;;5076330;28;20055;-85
2022/04/18 07:17:06;;;;;;;19.23;11.00;;;9.80;78.70;;;;;;5093634;28;20119;-85
2022/04/18 07:19:33;;;;;;;17.58;10.60;;;9.90;78.50;;;;;;5094341;28;20043;-85
2022/04/18 07:21:59;;;;;;;16.95;10.80;;;10.00;77.30;;;;;;5092277;28;20064;-85
2022/04/18 07:24:25;;;;;;;18.90;10.80;;;10.10;76.10;;;;;;5091814;28;20093;-85
2022/04/18 07:26:51;;;;;;;18.15;10.85;;;10.40;76.10;;;;;;5075527;28;20051;-86
2022/04/18 07:29:16;;;;;;;16.85;10.45;;;10.40;75.70;;;;;;5079590;28;20051;-86
2022/04/18 07:31:42;;;;;;;18.83;12.00;;;10.40;76.80;;;;;;5075636;28;20051;-86
2022/04/18 07:34:08;;;;;;;16.58;10.38;;;10.50;75.80;;;;;;5093595;28;20040;-86
2022/04/18 07:36:34;;;;;;;16.73;10.85;;;10.70;75.30;;;;;;5075753;28;20063;-88
2022/04/18 07:39:00;;;;;;;19.73;12.30;;;10.70;75.20;;;;;;5095968;28;20493;-86
2022/04/18 07:41:28;;;;;;;19.67;12.40;;;10.80;73.50;;;;;;5075412;28;20050;-85
2022/04/18 07:43:54;;;;;;;19.63;12.13;;;10.90;73.40;;;;;;5092385;28;20043;-86
2022/04/18 07:46:21;;;;;;;19.95;12.25;;;11.00;72.60;;;;;;5092471;28;20055;-88
2022/04/18 07:48:52;;;;;;;20.13;11.05;;;11.20;71.60;;;;;;5076533;28;20058;-86
2022/04/18 07:51:34;;;;;;;20.08;11.27;;;11.30;71.20;;;;;;5075465;28;20056;-86
2022/04/18 07:54:06;;;;;;;18.90;11.52;;;11.50;70.80;;;;;;5089941;28;20049;-85
2022/04/18 07:56:33;;;;;;;18.77;11.30;;;11.60;69.90;;;;;;5072181;28;20056;-85
2022/04/18 07:58:59;;;;;;;16.33;10.27;;;11.80;68.90;;;;;;5093257;28;20101;-85
2022/04/18 08:01:25;;;;;;;18.42;11.77;;;12.10;69.00;;;;;;5093014;28;20048;-84
2022/04/18 08:03:51;;;;;;;19.58;10.32;;;12.40;67.70;;;;;;5079413;27;20163;-84
2022/04/18 08:06:17;;;;;;;14.48;9.80;;;12.90;64.80;;;;;;5078626;28;20509;-85
2022/04/18 08:08:43;;;;;;;14.88;10.38;;;13.40;64.70;;;;;;5076367;28;20133;-84
2022/04/18 08:11:11;;;;;;;21.00;10.63;;;13.50;62.90;;;;;;5076729;28;20048;-86
2022/04/18 08:13:41;;;;;;;15.57;9.52;;;13.40;63.80;;;;;;5060028;28;20418;-85
2022/04/18 08:16:08;;;;;;;14.15;9.75;;;13.40;63.40;;;;;;5076680;28;20052;-85
2022/04/18 08:18:39;;;;;;;15.10;9.52;;;13.40;63.70;;;;;;5076581;28;20042;-85
2022/04/18 08:21:08;;;;;;;;;;;13.60;63.50;;;;;;5076617;28;20504;-86
2022/04/18 08:23:34;;;;;;;14.02;8.55;;;14.00;59.70;;;;;;5059749;28;19973;-85
2022/04/18 08:26:02;;;;;;;15.38;8.05;;;14.40;60.80;;;;;;5076550;28;20324;-85
2022/04/18 08:28:28;;;;;;;12.27;7.50;;;14.80;59.60;;;;;;5076290;28;20520;-86
2022/04/18 08:30:54;;;;;;;10.55;7.38;;;15.90;56.60;;;;;;5066182;27;20051;-86
2022/04/18 08:33:21;;;;;;;10.63;7.15;;;17.30;52.80;;;;;;5098832;28;20031;-86
2022/04/18 08:35:46;;;;;;;10.45;7.20;;;18.60;49.30;;;;;;5096185;28;20048;-86
2022/04/18 08:38:12;;;;;;;9.57;6.82;;;19.40;46.30;;;;;;5113442;28;20572;-87
2022/04/18 08:40:41;;;;;;;9.32;7.03;;;20.10;45.00;;;;;;5088794;28;20108;-86
2022/04/18 08:43:08;;;;;;;10.82;6.70;;;20.70;43.30;;;;;;5120098;27;20043;-85
2022/04/18 08:45:36;;;;;;;11.88;7.20;;;21.10;42.20;;;;;;5096717;27;20044;-89
2022/04/18 08:53:31;;;;;;;10.90;6.65;;;22.30;40.80;;;;;;5115197;27;20096;-83
2022/04/18 08:56:00;;;;;;;9.38;6.97;;;22.70;39.80;;;;;;5099779;27;20092;-83
2022/04/18 08:58:26;;;;;;;8.77;6.75;;;23.00;38.60;;;;;;5116599;27;20047;-82
2022/04/18 09:00:54;;;;;;;11.95;7.50;;;23.50;38.00;;;;;;5114066;27;20047;-85
2022/04/18 09:03:19;;;;;;;10.45;7.28;;;23.80;37.90;;;;;;5093410;28;20074;-83
2022/04/18 09:05:46;;;;;;;10.43;7.25;;;24.30;36.40;;;;;;5093409;28;20043;-86
2022/04/18 09:08:12;;;;;;;9.85;7.07;;;24.60;36.30;;;;;;5098409;27;20052;-83
2022/04/18 09:10:41;;;;;;;10.18;6.90;;;24.90;36.00;;;;;;5134338;27;20381;-86
2022/04/18 09:13:13;;;;;;;11.00;8.20;;;25.20;35.50;;;;;;5115977;27;20096;-80
2022/04/18 09:15:42;;;;;;;12.68;6.97;;;25.50;34.80;;;;;;5106355;28;20118;-85
2022/04/18 09:18:17;;;;;;;9.65;7.32;;;25.70;34.80;;;;;;5102873;28;20118;-85
2022/04/18 09:20:49;;;;;;;9.93;7.03;;;25.90;34.10;;;;;;5114705;27;20039;-84
2022/04/18 09:23:29;;;;;;;11.32;7.65;;;26.00;33.60;;;;;;5097020;28;20043;-87
2022/04/18 09:26:03;;;;;;;8.77;6.82;;;26.00;33.90;;;;;;5113651;27;20411;-88
2022/04/18 09:28:42;;;;;;;10.25;7.15;;;26.00;33.50;;;;;;5096934;27;20043;-87
2022/04/18 09:31:11;;;;;;;8.85;7.07;;;26.10;33.80;;;;;;5090557;27;20043;-89
2022/04/18 09:33:37;;;;;;;9.63;7.38;;;26.00;33.60;;;;;;5115372;27;20126;-89
2022/04/18 09:36:15;;;;;;;10.13;7.28;;;26.10;33.40;;;;;;5114912;27;20093;-88
2022/04/18 09:38:49;;;;;;;8.52;6.50;;;26.50;34.00;;;;;;5116077;27;20115;-87
2022/04/18 09:41:20;;;;;;;10.85;7.00;;;26.90;32.60;;;;;;5100431;28;20044;-89
2022/04/18 09:43:48;;;;;;;10.35;6.30;;;27.00;32.10;;;;;;5109303;27;20043;-90
2022/04/18 09:46:14;;;;;;;11.98;6.75;;;27.10;32.90;;;;;;5098203;28;20047;-88
2022/04/18 09:48:42;;;;;;;8.55;6.63;;;27.50;32.20;;;;;;5078805;28;20047;-89
2022/04/18 09:51:10;;;;;;;9.15;6.72;;;27.70;31.30;;;;;;5095061;28;20421;-88
2022/04/18 09:53:38;;;;;;;8.85;6.63;;;27.60;31.30;;;;;;5083766;27;20370;-88
2022/04/18 09:56:04;;;;;;;9.82;6.90;;;27.70;32.00;;;;;;5095278;28;20054;-89
2022/04/18 09:58:33;;;;;;;10.48;6.93;;;27.80;31.60;;;;;;5101655;28;20256;-87
2022/04/18 10:01:02;;;;;;;9.82;7.20;;;27.80;31.20;;;;;;5112212;28;20404;-89
2022/04/18 10:03:28;;;;;;;7.97;6.37;;;27.80;32.60;;;;;;5095336;28;20068;-89
2022/04/18 10:05:55;;;;;;;10.85;7.00;;;28.10;32.00;;;;;;5092540;28;20379;-91
2022/04/18 10:08:21;;;;;;;8.38;6.78;;;28.40;31.00;;;;;;5058768;28;20051;-92
2022/04/18 10:10:47;;;;;;;8.15;6.35;;;28.70;30.80;;;;;;5101084;28;20050;-92
2022/04/18 10:13:13;;;;;;;8.27;6.28;;;28.80;31.00;;;;;;5116435;28;20494;-92
2022/04/18 10:15:39;;;;;;;8.20;6.38;;;28.90;30.80;;;;;;5117538;28;20134;-92
2022/04/18 10:18:07;;;;;;;7.78;6.63;;;29.00;30.00;;;;;;5134781;28;20094;-91
2022/04/18 10:20:58;;;;;;;12.25;7.28;;;29.00;29.90;;;;;;5100623;28;20396;-93
2022/04/18 10:23:41;;;;;;;8.35;6.15;;;29.00;30.80;;;;;;5134102;28;20047;-93
2022/04/18 10:26:35;;;;;;;7.78;6.25;;;29.30;30.60;;;;;;5097504;28;20039;-90
2022/04/18 10:29:06;;;;;;;10.18;6.60;;;29.60;29.90;;;;;;5098426;28;20399;-91
2022/04/18 10:31:39;;;;;;;9.27;6.10;;;29.70;30.30;;;;;;5116566;28;20488;-92
2022/04/18 10:34:06;;;;;;;8.52;6.03;;;29.60;29.70;;;;;;5099597;28;20058;-93
2022/04/18 10:36:32;;;;;;;7.18;5.65;;;29.50;29.50;;;;;;5117697;28;20366;-91
2022/04/18 10:39:04;;;;;;;9.38;5.97;;;29.50;29.40;;;;;;5088223;28;20044;-91
2022/04/18 10:41:34;;;;;;;7.65;5.57;;;29.70;29.00;;;;;;5103031;28;20391;-92
2022/04/18 10:44:08;;;;;;;6.85;5.70;;;29.70;28.90;;;;;;5100345;28;20113;-92
2022/04/18 10:46:42;;;;;;;6.88;5.47;;;29.50;29.30;;;;;;5063285;28;20387;-92
2022/04/18 10:49:35;;;;;;;7.13;5.55;;;29.30;29.00;;;;;;5119300;28;20047;-93
2022/04/18 10:52:09;;;;;;;5.45;4.75;;;29.20;28.90;;;;;;5114139;28;20461;-93
2022/04/18 10:54:35;;;;;;;5.50;4.38;;;29.60;29.30;;;;;;5101379;28;20052;-92
2022/04/18 10:57:11;;;;;;;5.78;4.80;;;29.90;28.20;;;;;;5101572;28;20059;-92
2022/04/18 10:59:42;;;;;;;6.97;4.85;;;30.00;28.80;;;;;;5099033;27;20054;-94
2022/04/18 11:02:38;;;;;;;8.07;4.65;;;30.20;28.20;;;;;;5116904;28;20141;-91
2022/04/18 11:05:05;;;;;;;8.77;4.88;;;30.20;27.90;;;;;;5095694;28;20052;-92
2022/04/18 11:07:38;;;;;;;10.43;4.65;;;30.10;27.80;;;;;;5112707;28;20076;-94
2022/04/18 11:10:21;;;;;;;5.07;4.25;;;30.30;28.60;;;;;;5106629;27;20051;-93
2022/04/18 11:12:47;;;;;;;8.20;5.55;;;30.60;27.60;;;;;;5095267;28;20051;-93
2022/04/18 11:15:13;;;;;;;6.88;5.43;;;30.90;27.60;;;;;;5073380;28;20052;-93
2022/04/18 11:17:42;;;;;;;7.47;5.38;;;31.10;27.70;;;;;;5100114;28;20039;-93
2022/04/18 11:20:36;;;;;;;7.53;4.80;;;31.30;27.50;;;;;;5082295;28;20040;-90
2022/04/18 11:23:23;;;;;;;5.97;4.20;;;31.60;27.10;;;;;;5082253;28;20056;-93
2022/04/18 11:25:59;;;;;;;5.00;4.18;;;31.70;27.40;;;;;;5092987;27;20473;-88
2022/04/18 11:28:36;;;;;;;6.72;4.63;;;31.70;27.10;;;;;;5101558;27;20047;-91
2022/04/18 11:31:09;;;;;;;5.95;4.65;;;31.10;26.80;;;;;;5119766;27;20039;-91
2022/04/18 11:33:41;;;;;;;7.85;4.82;;;30.90;27.40;;;;;;5102304;27;20043;-91
2022/04/18 11:36:08;;;;;;;6.97;5.05;;;31.10;27.30;;;;;;5102890;27;20055;-91
2022/04/18 11:38:35;;;;;;;6.72;5.20;;;31.20;27.40;;;;;;5119370;27;20051;-91
2022/04/18 11:41:09;;;;;;;6.25;4.40;;;31.40;27.40;;;;;;5119494;27;20126;-92
2022/04/18 11:43:34;;;;;;;5.20;3.67;;;31.60;27.90;;;;;;5102491;27;20405;-92
2022/04/18 11:46:09;;;;;;;5.53;4.32;;;31.60;27.20;;;;;;5120010;27;20046;-92
2022/04/18 11:48:36;;;;;;;6.95;4.45;;;31.60;26.90;;;;;;5102196;27;20392;-92
2022/04/18 11:51:02;;;;;;;5.55;3.97;;;31.40;27.00;;;;;;5117905;27;20035;-92
2022/04/18 11:53:37;;;;;;;5.20;3.92;;;31.50;27.30;;;;;;5101475;27;20083;-92
2022/04/18 11:56:07;;;;;;;5.78;4.00;;;31.50;26.90;;;;;;5101562;27;20133;-95
2022/04/18 11:58:37;;;;;;;4.80;3.90;;;31.60;27.10;;;;;;5101421;27;20068;-91
2022/04/18 12:06:46;;;;;;;4.15;3.65;;;31.70;27.10;;;;;;5118260;27;20057;-89
2022/04/18 12:09:14;;;;;;;3.72;3.33;;;32.00;27.40;;;;;;5100310;27;20112;-91
2022/04/18 12:11:40;;;;;;;6.32;3.88;;;32.30;26.70;;;;;;5101861;27;20404;-91
2022/04/18 12:14:06;;;;;;;5.30;3.80;;;32.30;25.90;;;;;;5101813;27;20440;-91
2022/04/18 12:16:36;;;;;;;7.00;3.70;;;32.30;26.00;;;;;;5101322;27;20136;-91
2022/04/18 12:19:02;;;;;;;;;;;32.50;26.50;;;;;;5119645;27;20043;-91
2022/04/18 12:21:28;;;;;;;5.40;3.20;;;32.70;26.80;;;;;;5118687;27;19926;-91
2022/04/18 12:23:59;;;;;;;5.20;3.45;;;32.60;26.00;;;;;;5119067;27;20088;-90
2022/04/18 12:26:30;;;;;;;6.05;2.80;;;32.60;26.50;;;;;;5118418;27;20055;-91
2022/04/18 12:29:01;;;;;;;4.75;3.45;;;32.50;26.50;;;;;;5117764;27;20047;-90
2022/04/18 12:31:28;;;;;;;4.60;3.17;;;32.40;25.60;;;;;;5100759;27;20051;-88
2022/04/18 12:33:53;;;;;;;4.07;3.17;;;32.10;25.40;;;;;;5118116;27;20110;-90
2022/04/18 12:36:23;;;;;;;3.33;3.00;;;31.70;25.60;;;;;;5116433;27;20039;-91
2022/04/18 12:38:50;;;;;;;5.25;3.03;;;31.60;25.70;;;;;;5136405;27;20054;-91
2022/04/18 12:41:33;;;;;;;7.32;3.15;;;31.80;26.00;;;;;;5118905;27;20047;-90
2022/04/18 12:44:00;;;;;;;4.25;3.50;;;31.90;26.10;;;;;;5098080;28;20157;-90
2022/04/18 12:46:30;;;;;;;4.68;3.20;;;32.00;25.60;;;;;;5113584;27;20404;-90
2022/04/18 12:48:56;;;;;;;;;;;32.20;25.40;;;;;;5103984;27;20039;-91
2022/04/18 12:51:40;;;;;;;5.43;3.20;;;32.80;26.50;;;;;;5092477;28;19995;-91
2022/04/18 12:54:21;;;;;;;4.25;2.90;;;32.90;25.40;;;;;;5098054;28;20481;-93
2022/04/18 12:56:48;;;;;;;4.35;2.97;;;32.90;25.10;;;;;;5098222;28;20088;-89
2022/04/18 12:59:21;;;;;;;3.78;2.78;;;32.70;25.10;;;;;;5099937;28;20052;-91
2022/04/18 13:02:20;;;;;;;4.70;3.13;;;32.70;25.40;;;;;;5116162;28;20095;-92
2022/04/18 13:04:59;;;;;;;4.45;3.33;;;32.00;24.90;;;;;;5098768;28;20132;-93
2022/04/18 13:07:25;;;;;;;4.38;2.97;;;31.10;25.90;;;;;;5114787;28;20166;-91